sensor_id;sensor_type;location;lat;lon;timestamp;P1;durP1;ratioP1;P2;durP2;ratioP2
68247;SDS011;55064;49.636;12.164;2023-04-25T00:01:37;7.67;;;3.33;;
68247;SDS011;55064;49.636;12.164;2023-04-25T00:04:04;8.13;;;3.72;;
68247;SDS011;55064;49.636;12.164;2023-04-25T00:06:33;8.68;;;3.50;;
68247;SDS011;55064;49.636;12.164;2023-04-25T00:09:01;8.63;;;3.10;;
68247;SDS011;55064;49.636;12.164;2023-04-25T00:11:28;8.15;;;3.40;;
68247;SDS011;55064;49.636;12.164;2023-04-25T00:13:55;8.45;;;3.28;;
68247;SDS011;55064;49.636;12.164;2023-04-25T00:16:20;7.68;;;3.03;;
68247;SDS011;55064;49.636;12.164;2023-04-25T00:18:46;11.43;;;3.57;;
68247;SDS011;55064;49.636;12.164;2023-04-25T00:21:16;8.93;;;3.33;;
68247;SDS011;55064;49.636;12.164;2023-04-25T00:23:43;7.18;;;3.03;;
68247;SDS011;55064;49.636;12.164;2023-04-25T00:26:10;8.33;;;3.40;;
68247;SDS011;55064;49.636;12.164;2023-04-25T00:28:36;9.70;;;3.25;;
68247;SDS011;55064;49.636;12.164;2023-04-25T00:31:05;7.97;;;3.50;;
68247;SDS011;55064;49.636;12.164;2023-04-25T00:33:30;7.07;;;2.95;;
68247;SDS011;55064;49.636;12.164;2023-04-25T00:35:57;7.40;;;3.40;;
68247;SDS011;55064;49.636;12.164;2023-04-25T00:38:25;9.65;;;3.67;;
68247;SDS011;55064;49.636;12.164;2023-04-25T00:40:51;7.97;;;3.30;;
68247;SDS011;55064;49.636;12.164;2023-04-25T00:43:25;8.10;;;3.47;;
68247;SDS011;55064;49.636;12.164;2023-04-25T00:45:51;8.30;;;4.00;;
68247;SDS011;55064;49.636;12.164;2023-04-25T00:48:17;9.25;;;3.88;;
68247;SDS011;55064;49.636;12.164;2023-04-25T00:50:45;8.90;;;4.00;;
68247;SDS011;55064;49.636;12.164;2023-04-25T00:53:18;8.57;;;3.90;;
68247;SDS011;55064;49.636;12.164;2023-04-25T00:55:44;8.80;;;4.05;;
68247;SDS011;55064;49.636;12.164;2023-04-25T00:58:10;9.25;;;4.00;;
68247;SDS011;55064;49.636;12.164;2023-04-25T01:00:36;10.67;;;4.10;;
68247;SDS011;55064;49.636;12.164;2023-04-25T01:03:02;8.70;;;3.67;;
68247;SDS011;55064;49.636;12.164;2023-04-25T01:05:29;8.87;;;3.70;;
68247;SDS011;55064;49.636;12.164;2023-04-25T01:07:55;9.75;;;3.90;;
68247;SDS011;55064;49.636;12.164;2023-04-25T01:10:20;9.67;;;4.03;;
68247;SDS011;55064;49.636;12.164;2023-04-25T01:12:46;7.40;;;3.15;;
68247;SDS011;55064;49.636;12.164;2023-04-25T01:15:13;9.70;;;3.70;;
68247;SDS011;55064;49.636;12.164;2023-04-25T01:17:38;10.20;;;3.90;;
68247;SDS011;55064;49.636;12.164;2023-04-25T01:20:06;7.85;;;3.63;;
68247;SDS011;55064;49.636;12.164;2023-04-25T01:22:34;8.48;;;4.00;;
68247;SDS011;55064;49.636;12.164;2023-04-25T01:25:02;8.57;;;3.80;;
68247;SDS011;55064;49.636;12.164;2023-04-25T01:27:28;7.72;;;3.50;;
68247;SDS011;55064;49.636;12.164;2023-04-25T01:29:55;8.32;;;3.50;;
68247;SDS011;55064;49.636;12.164;2023-04-25T01:32:23;8.70;;;4.10;;
68247;SDS011;55064;49.636;12.164;2023-04-25T01:34:49;9.23;;;3.50;;
68247;SDS011;55064;49.636;12.164;2023-04-25T01:37:14;8.90;;;3.63;;
68247;SDS011;55064;49.636;12.164;2023-04-25T01:39:41;9.10;;;4.18;;
68247;SDS011;55064;49.636;12.164;2023-04-25T01:42:08;8.60;;;3.65;;
68247;SDS011;55064;49.636;12.164;2023-04-25T01:44:33;9.43;;;3.60;;
68247;SDS011;55064;49.636;12.164;2023-04-25T01:46:59;9.00;;;4.10;;
68247;SDS011;55064;49.636;12.164;2023-04-25T01:49:25;10.00;;;4.00;;
68247;SDS011;55064;49.636;12.164;2023-04-25T01:51:50;9.90;;;3.92;;
68247;SDS011;55064;49.636;12.164;2023-04-25T01:54:18;8.00;;;3.57;;
68247;SDS011;55064;49.636;12.164;2023-04-25T01:56:49;9.75;;;3.95;;
68247;SDS011;55064;49.636;12.164;2023-04-25T01:59:15;9.03;;;3.90;;
68247;SDS011;55064;49.636;12.164;2023-04-25T02:01:40;11.68;;;4.57;;
68247;SDS011;55064;49.636;12.164;2023-04-25T02:04:08;9.93;;;4.10;;
68247;SDS011;55064;49.636;12.164;2023-04-25T02:06:36;8.55;;;3.80;;
68247;SDS011;55064;49.636;12.164;2023-04-25T02:09:01;7.83;;;3.60;;
68247;SDS011;55064;49.636;12.164;2023-04-25T02:11:26;8.25;;;3.80;;
68247;SDS011;55064;49.636;12.164;2023-04-25T02:13:52;10.83;;;3.70;;
68247;SDS011;55064;49.636;12.164;2023-04-25T02:16:18;8.13;;;3.67;;
68247;SDS011;55064;49.636;12.164;2023-04-25T02:18:44;8.82;;;3.83;;
68247;SDS011;55064;49.636;12.164;2023-04-25T02:21:10;9.18;;;4.07;;
68247;SDS011;55064;49.636;12.164;2023-04-25T02:23:36;9.07;;;4.10;;
68247;SDS011;55064;49.636;12.164;2023-04-25T02:26:02;10.73;;;4.30;;
68247;SDS011;55064;49.636;12.164;2023-04-25T02:28:30;10.43;;;4.10;;
68247;SDS011;55064;49.636;12.164;2023-04-25T02:30:56;10.23;;;4.00;;
68247;SDS011;55064;49.636;12.164;2023-04-25T02:33:21;9.13;;;3.97;;
68247;SDS011;55064;49.636;12.164;2023-04-25T02:35:47;10.07;;;3.83;;
68247;SDS011;55064;49.636;12.164;2023-04-25T02:38:12;8.70;;;3.85;;
68247;SDS011;55064;49.636;12.164;2023-04-25T02:40:37;9.47;;;4.40;;
68247;SDS011;55064;49.636;12.164;2023-04-25T02:43:03;8.30;;;3.80;;
68247;SDS011;55064;49.636;12.164;2023-04-25T02:45:31;8.60;;;4.35;;
68247;SDS011;55064;49.636;12.164;2023-04-25T02:47:57;9.40;;;4.10;;
68247;SDS011;55064;49.636;12.164;2023-04-25T02:50:24;12.48;;;5.03;;
68247;SDS011;55064;49.636;12.164;2023-04-25T02:52:52;9.23;;;4.13;;
68247;SDS011;55064;49.636;12.164;2023-04-25T02:55:17;11.43;;;4.38;;
68247;SDS011;55064;49.636;12.164;2023-04-25T02:57:44;9.77;;;4.10;;
68247;SDS011;55064;49.636;12.164;2023-04-25T03:00:10;9.32;;;4.25;;
68247;SDS011;55064;49.636;12.164;2023-04-25T03:02:36;9.20;;;4.40;;
68247;SDS011;55064;49.636;12.164;2023-04-25T03:05:06;9.70;;;4.23;;
68247;SDS011;55064;49.636;12.164;2023-04-25T03:07:34;9.13;;;4.15;;
68247;SDS011;55064;49.636;12.164;2023-04-25T03:09:59;11.10;;;4.57;;
68247;SDS011;55064;49.636;12.164;2023-04-25T03:12:26;11.27;;;5.27;;
68247;SDS011;55064;49.636;12.164;2023-04-25T03:14:51;11.10;;;4.88;;
68247;SDS011;55064;49.636;12.164;2023-04-25T03:17:16;9.70;;;4.30;;
68247;SDS011;55064;49.636;12.164;2023-04-25T03:19:43;10.63;;;4.60;;
68247;SDS011;55064;49.636;12.164;2023-04-25T03:22:08;10.32;;;4.60;;
68247;SDS011;55064;49.636;12.164;2023-04-25T03:24:34;10.30;;;4.73;;
68247;SDS011;55064;49.636;12.164;2023-04-25T03:27:00;10.45;;;4.57;;
68247;SDS011;55064;49.636;12.164;2023-04-25T03:29:25;10.15;;;4.53;;
68247;SDS011;55064;49.636;12.164;2023-04-25T03:31:52;10.00;;;4.60;;
68247;SDS011;55064;49.636;12.164;2023-04-25T03:34:18;12.15;;;4.78;;
68247;SDS011;55064;49.636;12.164;2023-04-25T03:36:44;12.43;;;5.00;;
68247;SDS011;55064;49.636;12.164;2023-04-25T03:39:10;10.00;;;4.67;;
68247;SDS011;55064;49.636;12.164;2023-04-25T03:41:36;11.07;;;4.72;;
68247;SDS011;55064;49.636;12.164;2023-04-25T03:44:03;12.23;;;5.23;;
68247;SDS011;55064;49.636;12.164;2023-04-25T03:46:29;15.10;;;4.90;;
68247;SDS011;55064;49.636;12.164;2023-04-25T03:48:59;10.27;;;4.90;;
68247;SDS011;55064;49.636;12.164;2023-04-25T03:51:25;13.70;;;5.15;;
68247;SDS011;55064;49.636;12.164;2023-04-25T03:53:51;12.33;;;5.07;;
68247;SDS011;55064;49.636;12.164;2023-04-25T03:56:16;10.85;;;4.68;;
68247;SDS011;55064;49.636;12.164;2023-04-25T03:58:42;12.93;;;5.23;;
68247;SDS011;55064;49.636;12.164;2023-04-25T04:01:12;13.80;;;5.30;;
68247;SDS011;55064;49.636;12.164;2023-04-25T04:03:37;11.63;;;5.13;;
68247;SDS011;55064;49.636;12.164;2023-04-25T04:06:06;12.32;;;5.05;;
68247;SDS011;55064;49.636;12.164;2023-04-25T04:08:32;11.27;;;4.97;;
68247;SDS011;55064;49.636;12.164;2023-04-25T04:10:58;10.98;;;5.03;;
68247;SDS011;55064;49.636;12.164;2023-04-25T04:13:27;12.37;;;5.63;;
68247;SDS011;55064;49.636;12.164;2023-04-25T04:15:53;11.98;;;5.70;;
68247;SDS011;55064;49.636;12.164;2023-04-25T04:18:22;14.10;;;5.88;;
68247;SDS011;55064;49.636;12.164;2023-04-25T04:20:47;15.30;;;6.03;;
68247;SDS011;55064;49.636;12.164;2023-04-25T04:23:13;12.10;;;5.87;;
68247;SDS011;55064;49.636;12.164;2023-04-25T04:25:38;11.60;;;5.40;;
68247;SDS011;55064;49.636;12.164;2023-04-25T04:28:05;12.70;;;5.55;;
68247;SDS011;55064;49.636;12.164;2023-04-25T04:30:32;11.75;;;4.93;;
68247;SDS011;55064;49.636;12.164;2023-04-25T04:32:58;12.85;;;5.53;;
68247;SDS011;55064;49.636;12.164;2023-04-25T04:35:25;11.88;;;4.85;;
68247;SDS011;55064;49.636;12.164;2023-04-25T04:37:51;11.00;;;4.60;;
68247;SDS011;55064;49.636;12.164;2023-04-25T04:40:16;10.20;;;5.10;;
68247;SDS011;55064;49.636;12.164;2023-04-25T04:42:42;12.30;;;5.05;;
68247;SDS011;55064;49.636;12.164;2023-04-25T04:45:09;11.60;;;5.28;;
68247;SDS011;55064;49.636;12.164;2023-04-25T04:47:35;11.60;;;5.10;;
68247;SDS011;55064;49.636;12.164;2023-04-25T04:50:02;10.15;;;4.90;;
68247;SDS011;55064;49.636;12.164;2023-04-25T04:52:30;13.20;;;5.40;;
68247;SDS011;55064;49.636;12.164;2023-04-25T04:57:35;13.98;;;5.68;;
68247;SDS011;55064;49.636;12.164;2023-04-25T05:03:35;11.15;;;5.22;;
68247;SDS011;55064;49.636;12.164;2023-04-25T05:09:05;12.18;;;5.43;;
68247;SDS011;55064;49.636;12.164;2023-04-25T05:11:31;12.10;;;4.93;;
68247;SDS011;55064;49.636;12.164;2023-04-25T05:23:39;13.23;;;6.18;;
68247;SDS011;55064;49.636;12.164;2023-04-25T05:26:05;12.52;;;5.75;;
68247;SDS011;55064;49.636;12.164;2023-04-25T05:28:43;11.57;;;5.70;;
68247;SDS011;55064;49.636;12.164;2023-04-25T05:37:36;13.43;;;6.20;;
68247;SDS011;55064;49.636;12.164;2023-04-25T05:46:45;11.45;;;5.82;;
68247;SDS011;55064;49.636;12.164;2023-04-25T05:49:10;11.87;;;5.67;;
68247;SDS011;55064;49.636;12.164;2023-04-25T05:51:37;13.00;;;6.33;;
68247;SDS011;55064;49.636;12.164;2023-04-25T05:54:02;14.25;;;6.38;;
68247;SDS011;55064;49.636;12.164;2023-04-25T05:56:27;12.70;;;6.53;;
68247;SDS011;55064;49.636;12.164;2023-04-25T05:58:53;14.40;;;6.03;;
68247;SDS011;55064;49.636;12.164;2023-04-25T06:01:22;11.90;;;5.90;;
68247;SDS011;55064;49.636;12.164;2023-04-25T06:03:48;15.68;;;7.55;;
68247;SDS011;55064;49.636;12.164;2023-04-25T06:06:16;14.47;;;7.13;;
68247;SDS011;55064;49.636;12.164;2023-04-25T06:08:41;14.15;;;6.63;;
68247;SDS011;55064;49.636;12.164;2023-04-25T06:11:10;13.32;;;6.13;;
68247;SDS011;55064;49.636;12.164;2023-04-25T06:13:35;10.95;;;5.30;;
68247;SDS011;55064;49.636;12.164;2023-04-25T06:16:01;13.37;;;5.63;;
68247;SDS011;55064;49.636;12.164;2023-04-25T06:18:26;15.20;;;5.67;;
68247;SDS011;55064;49.636;12.164;2023-04-25T06:20:51;10.50;;;5.03;;
68247;SDS011;55064;49.636;12.164;2023-04-25T06:23:17;12.23;;;5.32;;
68247;SDS011;55064;49.636;12.164;2023-04-25T06:25:42;10.77;;;5.10;;
68247;SDS011;55064;49.636;12.164;2023-04-25T06:28:07;11.63;;;5.03;;
68247;SDS011;55064;49.636;12.164;2023-04-25T06:30:33;9.73;;;4.73;;
68247;SDS011;55064;49.636;12.164;2023-04-25T06:32:58;10.40;;;4.80;;
68247;SDS011;55064;49.636;12.164;2023-04-25T06:35:26;10.60;;;5.25;;
68247;SDS011;55064;49.636;12.164;2023-04-25T06:37:51;11.00;;;5.20;;
68247;SDS011;55064;49.636;12.164;2023-04-25T06:40:18;11.23;;;4.97;;
68247;SDS011;55064;49.636;12.164;2023-04-25T06:42:43;11.35;;;4.55;;
68247;SDS011;55064;49.636;12.164;2023-04-25T06:45:11;9.60;;;4.53;;
68247;SDS011;55064;49.636;12.164;2023-04-25T06:47:36;10.33;;;4.60;;
68247;SDS011;55064;49.636;12.164;2023-04-25T06:50:02;10.23;;;4.20;;
68247;SDS011;55064;49.636;12.164;2023-04-25T06:52:28;8.85;;;4.00;;
68247;SDS011;55064;49.636;12.164;2023-04-25T06:54:53;9.57;;;4.27;;
68247;SDS011;55064;49.636;12.164;2023-04-25T06:57:23;8.55;;;3.50;;
68247;SDS011;55064;49.636;12.164;2023-04-25T06:59:51;7.17;;;2.80;;
68247;SDS011;55064;49.636;12.164;2023-04-25T07:02:19;6.72;;;2.80;;
68247;SDS011;55064;49.636;12.164;2023-04-25T07:04:46;7.30;;;2.73;;
68247;SDS011;55064;49.636;12.164;2023-04-25T07:07:13;7.90;;;3.05;;
68247;SDS011;55064;49.636;12.164;2023-04-25T07:09:39;6.33;;;2.50;;
68247;SDS011;55064;49.636;12.164;2023-04-25T07:12:04;5.78;;;2.40;;
68247;SDS011;55064;49.636;12.164;2023-04-25T07:14:30;5.77;;;2.33;;
68247;SDS011;55064;49.636;12.164;2023-04-25T07:16:55;5.70;;;2.00;;
68247;SDS011;55064;49.636;12.164;2023-04-25T07:19:24;6.65;;;2.38;;
68247;SDS011;55064;49.636;12.164;2023-04-25T07:21:51;6.38;;;2.30;;
68247;SDS011;55064;49.636;12.164;2023-04-25T07:24:17;6.30;;;2.40;;
68247;SDS011;55064;49.636;12.164;2023-04-25T07:26:42;5.27;;;1.63;;
68247;SDS011;55064;49.636;12.164;2023-04-25T07:29:08;5.00;;;1.63;;
68247;SDS011;55064;49.636;12.164;2023-04-25T07:31:36;4.30;;;1.30;;
68247;SDS011;55064;49.636;12.164;2023-04-25T07:34:01;3.57;;;1.10;;
68247;SDS011;55064;49.636;12.164;2023-04-25T07:36:27;4.53;;;1.50;;
68247;SDS011;55064;49.636;12.164;2023-04-25T07:38:55;3.77;;;1.03;;
68247;SDS011;55064;49.636;12.164;2023-04-25T07:41:24;3.70;;;1.15;;
68247;SDS011;55064;49.636;12.164;2023-04-25T07:43:52;3.78;;;1.00;;
68247;SDS011;55064;49.636;12.164;2023-04-25T07:46:18;4.03;;;1.10;;
68247;SDS011;55064;49.636;12.164;2023-04-25T07:48:43;4.90;;;1.00;;
68247;SDS011;55064;49.636;12.164;2023-04-25T07:51:09;3.53;;;0.83;;
68247;SDS011;55064;49.636;12.164;2023-04-25T07:53:36;3.95;;;1.05;;
68247;SDS011;55064;49.636;12.164;2023-04-25T07:56:03;3.03;;;0.80;;
68247;SDS011;55064;49.636;12.164;2023-04-25T07:58:29;5.28;;;1.20;;
68247;SDS011;55064;49.636;12.164;2023-04-25T08:00:54;4.17;;;1.20;;
68247;SDS011;55064;49.636;12.164;2023-04-25T08:03:20;4.53;;;1.20;;
68247;SDS011;55064;49.636;12.164;2023-04-25T08:05:46;4.20;;;1.10;;
68247;SDS011;55064;49.636;12.164;2023-04-25T08:08:13;4.28;;;1.20;;
68247;SDS011;55064;49.636;12.164;2023-04-25T08:10:43;4.82;;;1.20;;
68247;SDS011;55064;49.636;12.164;2023-04-25T08:13:11;4.75;;;1.35;;
68247;SDS011;55064;49.636;12.164;2023-04-25T08:15:37;5.50;;;1.73;;
68247;SDS011;55064;49.636;12.164;2023-04-25T08:18:02;5.20;;;1.40;;
68247;SDS011;55064;49.636;12.164;2023-04-25T08:20:28;5.07;;;1.77;;
68247;SDS011;55064;49.636;12.164;2023-04-25T08:22:55;4.87;;;1.70;;
68247;SDS011;55064;49.636;12.164;2023-04-25T08:25:22;4.77;;;1.30;;
68247;SDS011;55064;49.636;12.164;2023-04-25T08:27:47;5.77;;;2.17;;
68247;SDS011;55064;49.636;12.164;2023-04-25T08:30:13;5.78;;;2.00;;
68247;SDS011;55064;49.636;12.164;2023-04-25T08:32:38;5.10;;;2.00;;
68247;SDS011;55064;49.636;12.164;2023-04-25T08:35:05;5.23;;;1.70;;
68247;SDS011;55064;49.636;12.164;2023-04-25T08:37:31;6.20;;;2.00;;
68247;SDS011;55064;49.636;12.164;2023-04-25T08:39:57;6.80;;;2.00;;
68247;SDS011;55064;49.636;12.164;2023-04-25T08:42:29;7.27;;;2.17;;
68247;SDS011;55064;49.636;12.164;2023-04-25T08:44:59;6.83;;;2.37;;
68247;SDS011;55064;49.636;12.164;2023-04-25T08:47:27;5.80;;;2.17;;
68247;SDS011;55064;49.636;12.164;2023-04-25T08:49:55;6.03;;;2.30;;
68247;SDS011;55064;49.636;12.164;2023-04-25T08:52:21;7.10;;;2.83;;
68247;SDS011;55064;49.636;12.164;2023-04-25T08:54:53;6.47;;;2.50;;
68247;SDS011;55064;49.636;12.164;2023-04-25T08:57:20;6.75;;;2.35;;
68247;SDS011;55064;49.636;12.164;2023-04-25T08:59:46;6.82;;;2.33;;
68247;SDS011;55064;49.636;12.164;2023-04-25T09:02:13;6.45;;;2.30;;
68247;SDS011;55064;49.636;12.164;2023-04-25T09:04:42;7.60;;;2.50;;
68247;SDS011;55064;49.636;12.164;2023-04-25T09:07:08;7.03;;;2.83;;
68247;SDS011;55064;49.636;12.164;2023-04-25T09:09:34;8.38;;;3.15;;
68247;SDS011;55064;49.636;12.164;2023-04-25T09:12:00;8.23;;;3.50;;
68247;SDS011;55064;49.636;12.164;2023-04-25T09:14:26;7.93;;;2.50;;
68247;SDS011;55064;49.636;12.164;2023-04-25T09:19:24;7.88;;;3.00;;
68247;SDS011;55064;49.636;12.164;2023-04-25T09:21:51;9.33;;;3.30;;
68247;SDS011;55064;49.636;12.164;2023-04-25T09:24:29;8.27;;;3.45;;
68247;SDS011;55064;49.636;12.164;2023-04-25T09:26:56;8.75;;;3.53;;
68247;SDS011;55064;49.636;12.164;2023-04-25T09:29:27;7.93;;;3.23;;
68247;SDS011;55064;49.636;12.164;2023-04-25T09:32:10;7.30;;;3.13;;
68247;SDS011;55064;49.636;12.164;2023-04-25T09:34:42;8.25;;;3.13;;
68247;SDS011;55064;49.636;12.164;2023-04-25T09:37:09;7.85;;;3.53;;
68247;SDS011;55064;49.636;12.164;2023-04-25T09:39:38;7.37;;;3.50;;
68247;SDS011;55064;49.636;12.164;2023-04-25T09:42:04;8.35;;;3.30;;
68247;SDS011;55064;49.636;12.164;2023-04-25T09:44:30;9.20;;;3.75;;
68247;SDS011;55064;49.636;12.164;2023-04-25T09:46:56;8.43;;;3.70;;
68247;SDS011;55064;49.636;12.164;2023-04-25T09:49:22;9.27;;;3.50;;
68247;SDS011;55064;49.636;12.164;2023-04-25T09:51:57;8.17;;;3.40;;
68247;SDS011;55064;49.636;12.164;2023-04-25T09:54:26;9.35;;;3.70;;
68247;SDS011;55064;49.636;12.164;2023-04-25T09:56:53;7.72;;;3.55;;
68247;SDS011;55064;49.636;12.164;2023-04-25T09:59:20;7.97;;;3.65;;
68247;SDS011;55064;49.636;12.164;2023-04-25T10:01:48;7.40;;;3.70;;
68247;SDS011;55064;49.636;12.164;2023-04-25T10:04:17;7.90;;;3.50;;
68247;SDS011;55064;49.636;12.164;2023-04-25T10:06:45;8.32;;;3.03;;
68247;SDS011;55064;49.636;12.164;2023-04-25T10:09:14;8.45;;;3.65;;
68247;SDS011;55064;49.636;12.164;2023-04-25T10:11:40;8.20;;;3.58;;
68247;SDS011;55064;49.636;12.164;2023-04-25T10:14:07;10.90;;;3.67;;
68247;SDS011;55064;49.636;12.164;2023-04-25T10:16:33;8.73;;;3.50;;
68247;SDS011;55064;49.636;12.164;2023-04-25T10:18:58;7.73;;;3.23;;
68247;SDS011;55064;49.636;12.164;2023-04-25T10:21:27;6.95;;;2.90;;
68247;SDS011;55064;49.636;12.164;2023-04-25T10:23:57;7.90;;;3.15;;
68247;SDS011;55064;49.636;12.164;2023-04-25T10:26:23;6.90;;;3.20;;
68247;SDS011;55064;49.636;12.164;2023-04-25T10:29:00;6.88;;;2.85;;
68247;SDS011;55064;49.636;12.164;2023-04-25T10:31:28;7.00;;;2.83;;
68247;SDS011;55064;49.636;12.164;2023-04-25T10:33:55;7.53;;;2.92;;
68247;SDS011;55064;49.636;12.164;2023-04-25T10:36:27;7.35;;;2.67;;
68247;SDS011;55064;49.636;12.164;2023-04-25T10:38:56;6.20;;;2.50;;
68247;SDS011;55064;49.636;12.164;2023-04-25T10:41:32;5.55;;;2.28;;
68247;SDS011;55064;49.636;12.164;2023-04-25T10:44:10;4.47;;;1.53;;
68247;SDS011;55064;49.636;12.164;2023-04-25T10:46:36;5.85;;;1.90;;
68247;SDS011;55064;49.636;12.164;2023-04-25T10:49:02;5.50;;;2.03;;
68247;SDS011;55064;49.636;12.164;2023-04-25T10:51:28;5.43;;;2.10;;
68247;SDS011;55064;49.636;12.164;2023-04-25T11:01:40;5.95;;;2.30;;
68247;SDS011;55064;49.636;12.164;2023-04-25T11:09:29;5.45;;;2.30;;
68247;SDS011;55064;49.636;12.164;2023-04-25T11:11:58;6.10;;;2.10;;
68247;SDS011;55064;49.636;12.164;2023-04-25T11:14:24;5.70;;;2.40;;
68247;SDS011;55064;49.636;12.164;2023-04-25T11:16:54;5.70;;;2.50;;
68247;SDS011;55064;49.636;12.164;2023-04-25T11:19:20;5.55;;;2.17;;
68247;SDS011;55064;49.636;12.164;2023-04-25T11:21:52;6.20;;;2.35;;
68247;SDS011;55064;49.636;12.164;2023-04-25T11:24:21;5.72;;;2.13;;
68247;SDS011;55064;49.636;12.164;2023-04-25T11:26:54;5.88;;;2.40;;
68247;SDS011;55064;49.636;12.164;2023-04-25T11:29:23;6.13;;;2.33;;
68247;SDS011;55064;49.636;12.164;2023-04-25T11:31:52;5.85;;;2.20;;
68247;SDS011;55064;49.636;12.164;2023-04-25T11:34:22;6.05;;;2.00;;
68247;SDS011;55064;49.636;12.164;2023-04-25T11:36:50;6.43;;;2.30;;
68247;SDS011;55064;49.636;12.164;2023-04-25T11:39:23;5.60;;;2.35;;
68247;SDS011;55064;49.636;12.164;2023-04-25T11:41:49;6.23;;;2.20;;
68247;SDS011;55064;49.636;12.164;2023-04-25T11:44:17;4.72;;;1.60;;
68247;SDS011;55064;49.636;12.164;2023-04-25T11:46:46;5.55;;;2.00;;
68247;SDS011;55064;49.636;12.164;2023-04-25T11:49:13;5.38;;;1.98;;
68247;SDS011;55064;49.636;12.164;2023-04-25T11:51:44;5.47;;;2.40;;
68247;SDS011;55064;49.636;12.164;2023-04-25T11:54:10;5.93;;;2.50;;
68247;SDS011;55064;49.636;12.164;2023-04-25T11:56:36;6.45;;;2.63;;
68247;SDS011;55064;49.636;12.164;2023-04-25T11:59:03;6.85;;;2.60;;
68247;SDS011;55064;49.636;12.164;2023-04-25T12:01:31;5.87;;;1.93;;
68247;SDS011;55064;49.636;12.164;2023-04-25T12:04:11;4.57;;;1.80;;
68247;SDS011;55064;49.636;12.164;2023-04-25T12:06:37;4.95;;;1.60;;
68247;SDS011;55064;49.636;12.164;2023-04-25T12:09:12;5.25;;;2.00;;
68247;SDS011;55064;49.636;12.164;2023-04-25T12:11:47;4.65;;;1.70;;
68247;SDS011;55064;49.636;12.164;2023-04-25T12:14:20;5.13;;;1.90;;
68247;SDS011;55064;49.636;12.164;2023-04-25T12:16:52;6.85;;;1.70;;
68247;SDS011;55064;49.636;12.164;2023-04-25T12:19:19;6.68;;;2.63;;
68247;SDS011;55064;49.636;12.164;2023-04-25T12:21:45;5.30;;;1.90;;
68247;SDS011;55064;49.636;12.164;2023-04-25T12:24:15;6.63;;;1.75;;
68247;SDS011;55064;49.636;12.164;2023-04-25T12:26:50;4.73;;;1.60;;
68247;SDS011;55064;49.636;12.164;2023-04-25T12:29:22;4.70;;;1.63;;
68247;SDS011;55064;49.636;12.164;2023-04-25T12:31:49;4.85;;;1.83;;
68247;SDS011;55064;49.636;12.164;2023-04-25T12:34:20;6.13;;;2.13;;
68247;SDS011;55064;49.636;12.164;2023-04-25T12:36:46;7.20;;;2.50;;
68247;SDS011;55064;49.636;12.164;2023-04-25T12:39:21;5.73;;;2.13;;
68247;SDS011;55064;49.636;12.164;2023-04-25T12:41:50;6.85;;;2.28;;
68247;SDS011;55064;49.636;12.164;2023-04-25T12:44:18;5.30;;;1.80;;
68247;SDS011;55064;49.636;12.164;2023-04-25T12:46:51;5.28;;;1.75;;
68247;SDS011;55064;49.636;12.164;2023-04-25T12:49:16;5.82;;;1.77;;
68247;SDS011;55064;49.636;12.164;2023-04-25T12:51:43;5.47;;;1.60;;
68247;SDS011;55064;49.636;12.164;2023-04-25T12:54:08;4.72;;;1.83;;
68247;SDS011;55064;49.636;12.164;2023-04-25T12:56:40;6.50;;;1.80;;
68247;SDS011;55064;49.636;12.164;2023-04-25T12:59:08;4.85;;;1.98;;
68247;SDS011;55064;49.636;12.164;2023-04-25T13:01:35;6.50;;;2.27;;
68247;SDS011;55064;49.636;12.164;2023-04-25T13:04:00;5.65;;;1.98;;
68247;SDS011;55064;49.636;12.164;2023-04-25T13:06:27;4.90;;;1.40;;
68247;SDS011;55064;49.636;12.164;2023-04-25T13:08:52;4.40;;;1.50;;
68247;SDS011;55064;49.636;12.164;2023-04-25T13:11:19;3.90;;;1.10;;
68247;SDS011;55064;49.636;12.164;2023-04-25T13:13:44;3.83;;;0.90;;
68247;SDS011;55064;49.636;12.164;2023-04-25T13:16:10;4.20;;;1.23;;
68247;SDS011;55064;49.636;12.164;2023-04-25T13:18:41;3.58;;;1.10;;
68247;SDS011;55064;49.636;12.164;2023-04-25T13:21:06;2.35;;;0.80;;
68247;SDS011;55064;49.636;12.164;2023-04-25T13:23:34;3.38;;;1.10;;
68247;SDS011;55064;49.636;12.164;2023-04-25T13:25:59;3.78;;;0.95;;
68247;SDS011;55064;49.636;12.164;2023-04-25T13:28:26;2.97;;;0.90;;
68247;SDS011;55064;49.636;12.164;2023-04-25T13:30:52;2.78;;;0.70;;
68247;SDS011;55064;49.636;12.164;2023-04-25T13:33:19;3.78;;;0.70;;
68247;SDS011;55064;49.636;12.164;2023-04-25T13:35:46;3.55;;;1.00;;
68247;SDS011;55064;49.636;12.164;2023-04-25T13:38:21;3.30;;;0.90;;
68247;SDS011;55064;49.636;12.164;2023-04-25T13:40:47;4.00;;;1.00;;
68247;SDS011;55064;49.636;12.164;2023-04-25T13:43:13;3.08;;;0.90;;
68247;SDS011;55064;49.636;12.164;2023-04-25T13:45:39;3.25;;;0.90;;
68247;SDS011;55064;49.636;12.164;2023-04-25T13:48:04;3.40;;;1.07;;
68247;SDS011;55064;49.636;12.164;2023-04-25T13:50:37;3.50;;;0.85;;
68247;SDS011;55064;49.636;12.164;2023-04-25T13:53:02;3.97;;;1.20;;
68247;SDS011;55064;49.636;12.164;2023-04-25T13:55:31;3.70;;;1.00;;
68247;SDS011;55064;49.636;12.164;2023-04-25T13:57:58;3.08;;;0.98;;
68247;SDS011;55064;49.636;12.164;2023-04-25T14:00:23;3.47;;;0.90;;
68247;SDS011;55064;49.636;12.164;2023-04-25T14:02:54;4.45;;;1.10;;
68247;SDS011;55064;49.636;12.164;2023-04-25T14:05:23;3.77;;;1.20;;
68247;SDS011;55064;49.636;12.164;2023-04-25T14:07:48;3.50;;;1.02;;
68247;SDS011;55064;49.636;12.164;2023-04-25T14:10:13;3.50;;;1.00;;
68247;SDS011;55064;49.636;12.164;2023-04-25T14:12:39;3.28;;;1.02;;
68247;SDS011;55064;49.636;12.164;2023-04-25T14:15:05;4.30;;;1.20;;
68247;SDS011;55064;49.636;12.164;2023-04-25T14:17:30;4.78;;;1.00;;
68247;SDS011;55064;49.636;12.164;2023-04-25T14:19:56;3.23;;;0.97;;
68247;SDS011;55064;49.636;12.164;2023-04-25T14:22:23;3.63;;;0.95;;
68247;SDS011;55064;49.636;12.164;2023-04-25T14:24:48;3.35;;;0.95;;
68247;SDS011;55064;49.636;12.164;2023-04-25T14:27:16;4.23;;;1.10;;
68247;SDS011;55064;49.636;12.164;2023-04-25T14:29:49;4.05;;;1.10;;
68247;SDS011;55064;49.636;12.164;2023-04-25T14:32:15;3.63;;;1.10;;
68247;SDS011;55064;49.636;12.164;2023-04-25T14:34:41;3.67;;;1.20;;
68247;SDS011;55064;49.636;12.164;2023-04-25T14:37:09;3.93;;;1.07;;
68247;SDS011;55064;49.636;12.164;2023-04-25T14:39:34;4.15;;;1.10;;
68247;SDS011;55064;49.636;12.164;2023-04-25T14:42:00;4.30;;;1.30;;
68247;SDS011;55064;49.636;12.164;2023-04-25T14:44:28;4.53;;;1.40;;
68247;SDS011;55064;49.636;12.164;2023-04-25T14:46:54;5.88;;;1.35;;
68247;SDS011;55064;49.636;12.164;2023-04-25T14:49:20;3.60;;;1.10;;
68247;SDS011;55064;49.636;12.164;2023-04-25T14:51:46;4.13;;;1.30;;
68247;SDS011;55064;49.636;12.164;2023-04-25T14:54:16;5.00;;;1.50;;
68247;SDS011;55064;49.636;12.164;2023-04-25T14:56:44;3.80;;;1.10;;
68247;SDS011;55064;49.636;12.164;2023-04-25T14:59:09;5.53;;;1.87;;
68247;SDS011;55064;49.636;12.164;2023-04-25T15:01:36;5.57;;;1.60;;
68247;SDS011;55064;49.636;12.164;2023-04-25T15:04:02;5.82;;;1.70;;
68247;SDS011;55064;49.636;12.164;2023-04-25T15:06:28;5.00;;;1.77;;
68247;SDS011;55064;49.636;12.164;2023-04-25T15:08:56;4.15;;;1.27;;
68247;SDS011;55064;49.636;12.164;2023-04-25T15:14:44;4.57;;;1.58;;
68247;SDS011;55064;49.636;12.164;2023-04-25T15:20:10;4.85;;;1.30;;
68247;SDS011;55064;49.636;12.164;2023-04-25T15:22:38;4.63;;;1.50;;
68247;SDS011;55064;49.636;12.164;2023-04-25T15:25:06;3.80;;;1.10;;